createdAt,value
2023-03-19T00:02:32.591Z,100748.06
2023-03-19T00:05:04.472Z,100732.94
2023-03-19T00:07:35.988Z,100732.94
2023-03-19T00:10:07.691Z,100732.97
2023-03-19T00:12:39.254Z,100733.81
2023-03-19T00:15:14.789Z,100736.47
2023-03-19T00:17:46.376Z,100732.19
2023-03-19T00:20:18.842Z,100729.56
2023-03-19T00:22:50.557Z,100734.22
2023-03-19T00:25:22.115Z,100732.19
2023-03-19T00:27:55.071Z,100731.38
2023-03-19T00:30:27.536Z,100728.53
2023-03-19T00:32:59.119Z,100725.69
2023-03-19T00:35:30.994Z,100733.47
2023-03-19T00:38:02.921Z,100739.63
2023-03-19T00:40:34.701Z,100734.31
2023-03-19T00:43:06.355Z,100738.81
2023-03-19T00:45:38.319Z,100734.91
2023-03-19T00:48:09.873Z,100731.03
2023-03-19T00:50:41.571Z,100737.97
2023-03-19T00:53:13.063Z,100740.84
2023-03-19T00:55:45.080Z,100743.28
2023-03-19T00:58:16.582Z,100744.13
2023-03-19T01:00:48.925Z,100740.84
2023-03-19T01:03:20.794Z,100740.66
2023-03-19T01:05:52.651Z,100746.97
2023-03-19T01:08:24.189Z,100748.00
2023-03-19T01:10:55.740Z,100745.34
2023-03-19T01:13:27.221Z,100749.19
2023-03-19T01:15:58.741Z,100748.19
2023-03-19T01:18:30.247Z,100751.66
2023-03-19T01:21:01.928Z,100751.03
2023-03-19T01:23:33.482Z,100744.91
2023-03-19T01:26:05.347Z,100742.44
2023-03-19T01:28:37.236Z,100746.72
2023-03-19T01:31:09.153Z,100740.38
2023-03-19T01:33:40.679Z,100748.97
2023-03-19T01:36:12.348Z,100745.91
2023-03-19T01:38:43.910Z,100752.63
2023-03-19T01:41:15.667Z,100751.00
2023-03-19T01:43:47.139Z,100751.41
2023-03-19T01:46:18.875Z,100749.16
2023-03-19T01:48:50.709Z,100744.88
2023-03-19T01:51:22.544Z,100755.09
2023-03-19T01:53:54.070Z,100750.38
2023-03-19T01:56:25.995Z,100755.91
2023-03-19T01:58:57.522Z,100746.09
2023-03-19T02:01:29.880Z,100753.88
2023-03-19T02:04:01.489Z,100750.78
2023-03-19T02:06:33.037Z,100749.38
2023-03-19T02:09:04.604Z,100745.28
2023-03-19T02:11:36.553Z,100741.41
2023-03-19T02:14:09.532Z,100736.28
2023-03-19T02:16:41.439Z,100732.59
2023-03-19T02:19:12.925Z,100733.44
2023-03-19T02:21:44.609Z,100731.38
2023-03-19T02:24:17.318Z,100738.53
2023-03-19T02:26:49.238Z,100734.66
2023-03-19T02:29:21.012Z,100734.66
2023-03-19T02:31:52.989Z,100737.31
2023-03-19T02:34:24.477Z,100738.13
2023-03-19T02:36:55.988Z,100741.81
2023-03-19T02:39:27.476Z,100736.09
2023-03-19T02:41:59.000Z,100741.22
2023-03-19T02:44:30.601Z,100737.34
2023-03-19T02:47:02.566Z,100726.94
2023-03-19T02:49:34.113Z,100730.41
2023-03-19T02:52:05.726Z,100742.06
2023-03-19T02:54:37.227Z,100736.75
2023-03-19T02:57:08.877Z,100743.88
2023-03-19T02:59:40.438Z,100744.53
2023-03-19T03:02:12.438Z,100737.78
2023-03-19T03:04:43.986Z,100731.63
2023-03-19T03:07:15.720Z,100735.50
2023-03-19T03:09:47.259Z,100732.66
2023-03-19T03:12:19.209Z,100731.22
2023-03-19T03:14:51.264Z,100734.69
2023-03-19T03:17:23.616Z,100745.31
2023-03-19T03:19:55.108Z,100744.50
2023-03-19T03:22:27.886Z,100749.19
2023-03-19T03:24:59.406Z,100748.97
2023-03-19T03:27:31.674Z,100751.81
2023-03-19T03:30:03.281Z,100745.91
2023-03-19T03:32:34.965Z,100747.13
2023-03-19T03:35:06.493Z,100752.44
2023-03-19T03:37:38.296Z,100753.66
2023-03-19T03:40:11.054Z,100773.66
2023-03-19T03:42:42.780Z,100793.69
2023-03-19T03:45:14.320Z,100795.31
2023-03-19T03:47:46.386Z,100792.66
2023-03-19T03:50:18.480Z,100795.09
2023-03-19T03:52:49.962Z,100801.66
2023-03-19T03:55:21.572Z,100788.59
2023-03-19T03:57:53.095Z,100789.41
2023-03-19T04:00:25.198Z,100796.53
2023-03-19T04:02:56.769Z,100799.59
2023-03-19T04:05:28.799Z,100799.56
2023-03-19T04:08:00.328Z,100797.94
2023-03-19T04:10:32.716Z,100809.16
2023-03-19T04:13:08.451Z,100806.50
2023-03-19T04:15:40.298Z,100809.34
2023-03-19T04:18:11.788Z,100811.34
2023-03-19T04:20:43.960Z,100811.16
2023-03-19T04:23:15.566Z,100809.72
2023-03-19T04:25:48.484Z,100814.63
2023-03-19T04:28:20.254Z,100827.75
2023-03-19T04:30:52.282Z,100820.19
2023-03-19T04:33:24.182Z,100822.84
2023-03-19T04:35:56.064Z,100820.63
2023-03-19T04:38:27.802Z,100819.81
2023-03-19T04:40:59.483Z,100822.06
2023-03-19T04:43:31.122Z,100820.25
2023-03-19T04:46:02.902Z,100823.72
2023-03-19T04:48:35.830Z,100823.69
2023-03-19T04:51:09.562Z,100830.47
2023-03-19T04:53:41.038Z,100824.72
2023-03-19T04:56:16.074Z,100833.13
2023-03-19T04:58:47.584Z,100816.78
2023-03-19T05:01:19.116Z,100810.66
2023-03-19T05:03:50.808Z,100810.03
2023-03-19T05:06:22.736Z,100795.13
2023-03-19T05:08:54.443Z,100797.97
2023-03-19T05:11:26.039Z,100798.41
2023-03-19T05:13:57.543Z,100784.91
2023-03-19T05:16:29.367Z,100773.25
2023-03-19T05:19:00.879Z,100769.56
2023-03-19T05:21:33.044Z,100779.78
2023-03-19T05:24:04.529Z,100776.84
2023-03-19T05:26:37.864Z,100781.91
2023-03-19T05:29:10.959Z,100791.63
2023-03-19T05:31:42.831Z,100790.50
2023-03-19T05:34:14.372Z,100791.09
2023-03-19T05:36:46.477Z,100779.09
2023-03-19T05:39:18.009Z,100780.09
2023-03-19T05:41:49.777Z,100777.66
2023-03-19T05:44:21.343Z,100785.06
2023-03-19T05:46:53.484Z,100787.59
2023-03-19T05:49:25.112Z,100792.53
2023-03-19T05:51:56.735Z,100799.72
2023-03-19T05:54:28.288Z,100788.81
2023-03-19T05:56:59.793Z,100783.56
2023-03-19T05:59:31.401Z,100781.94
2023-03-19T06:02:03.084Z,100785.44
2023-03-19T06:04:34.617Z,100780.34
2023-03-19T06:07:06.317Z,100786.03
2023-03-19T06:09:37.822Z,100784.47
2023-03-19T06:12:09.718Z,100793.88
2023-03-19T06:14:41.249Z,100790.22
2023-03-19T06:17:13.106Z,100800.84
2023-03-19T06:19:44.646Z,100800.44
2023-03-19T06:22:16.402Z,100804.38
2023-03-19T06:24:47.930Z,100799.28
2023-03-19T06:27:19.444Z,100809.13
2023-03-19T06:29:50.938Z,100809.53
2023-03-19T06:32:22.547Z,100807.06
2023-03-19T06:34:55.128Z,100811.19
2023-03-19T06:37:27.260Z,100814.03
2023-03-19T06:39:58.768Z,100825.28
2023-03-19T06:42:31.141Z,100840.19
2023-03-19T06:45:02.710Z,100846.56
2023-03-19T06:47:34.660Z,100856.97
2023-03-19T06:50:06.189Z,100855.53
2023-03-19T06:52:38.074Z,100864.31
2023-03-19T06:55:09.633Z,100864.75
2023-03-19T06:57:41.738Z,100874.75
2023-03-19T07:00:13.612Z,100879.06
2023-03-19T07:02:45.618Z,100903.00
2023-03-19T07:05:17.119Z,100928.34
2023-03-19T07:07:48.824Z,100936.72
2023-03-19T07:10:20.304Z,100938.75
2023-03-19T07:12:52.195Z,100935.91
2023-03-19T07:15:23.773Z,100922.22
2023-03-19T07:17:55.315Z,100944.13
2023-03-19T07:20:27.040Z,100934.28
2023-03-19T07:22:59.650Z,100922.03
2023-03-19T07:25:31.240Z,100918.06
2023-03-19T07:28:03.295Z,100914.09
2023-03-19T07:30:35.853Z,100913.56
2023-03-19T07:33:08.149Z,100898.94
2023-03-19T07:35:39.804Z,100881.16
2023-03-19T07:38:11.997Z,100869.38
2023-03-19T07:40:55.092Z,100876.16
2023-03-19T07:43:33.242Z,100875.25
2023-03-19T07:46:04.766Z,100878.53
2023-03-19T07:48:36.628Z,100872.25
2023-03-19T07:51:08.182Z,100888.91
2023-03-19T07:53:39.862Z,100885.22
2023-03-19T07:56:11.477Z,100889.41
2023-03-19T07:58:43.303Z,100889.34
2023-03-19T08:01:14.760Z,100881.38
2023-03-19T08:03:48.856Z,100887.53
2023-03-19T08:06:20.408Z,100877.81
2023-03-19T08:08:52.287Z,100877.13
2023-03-19T08:11:23.929Z,100879.44
2023-03-19T08:13:55.527Z,100886.44
2023-03-19T08:16:27.075Z,100895.94
2023-03-19T08:18:58.631Z,100907.94
2023-03-19T08:21:30.132Z,100928.56
2023-03-19T08:24:04.528Z,100936.09
2023-03-19T08:26:37.988Z,100983.88
2023-03-19T08:29:09.540Z,100975.78
2023-03-19T08:31:41.726Z,100969.56
2023-03-19T08:34:13.239Z,100970.88
2023-03-19T08:36:45.020Z,100981.09
2023-03-19T08:39:16.539Z,100987.06
2023-03-19T08:41:48.248Z,100972.53
2023-03-19T08:44:19.822Z,100976.06
2023-03-19T08:46:51.460Z,100979.31
2023-03-19T08:49:22.974Z,100963.75
2023-03-19T08:51:54.610Z,100958.84
2023-03-19T08:54:26.274Z,100948.41
2023-03-19T08:56:57.805Z,100929.38
2023-03-19T08:59:31.005Z,100918.09
2023-03-19T09:02:04.579Z,100892.75
2023-03-19T09:04:39.040Z,100876.19
2023-03-19T09:07:13.375Z,100870.06
2023-03-19T09:09:45.011Z,100860.63
2023-03-19T09:12:16.837Z,100866.38
2023-03-19T09:14:48.523Z,100859.78
2023-03-19T09:17:20.381Z,100857.50
2023-03-19T09:19:51.916Z,100867.94
2023-03-19T09:22:23.749Z,100866.84
2023-03-19T09:24:55.371Z,100875.75
2023-03-19T09:27:27.627Z,100877.13
2023-03-19T09:29:59.175Z,100871.16
2023-03-19T09:32:31.022Z,100879.59
2023-03-19T09:35:02.597Z,100870.69
2023-03-19T09:37:35.674Z,100863.16
2023-03-19T09:40:07.322Z,100866.41
2023-03-19T09:42:39.121Z,100868.88
2023-03-19T09:45:10.619Z,100867.69
2023-03-19T09:47:43.948Z,100872.16
2023-03-19T09:50:15.788Z,100878.91
2023-03-19T09:52:47.454Z,100879.13
2023-03-19T09:55:18.997Z,100882.50
2023-03-19T09:57:50.824Z,100886.09
2023-03-19T10:00:22.602Z,100886.81
2023-03-19T10:02:54.244Z,100883.19
2023-03-19T10:05:25.867Z,100891.25
2023-03-19T10:07:57.722Z,100891.03
2023-03-19T10:10:29.255Z,100892.53
2023-03-19T10:13:00.835Z,100900.63
2023-03-19T10:15:32.683Z,100896.78
2023-03-19T10:18:04.827Z,100892.28
2023-03-19T10:20:36.632Z,100896.19
2023-03-19T10:23:08.373Z,100891.13
2023-03-19T10:25:41.566Z,100894.31
2023-03-19T10:28:13.413Z,100892.47
2023-03-19T10:30:44.957Z,100889.81
2023-03-19T10:33:16.744Z,100883.25
2023-03-19T10:35:48.371Z,100886.84
2023-03-19T10:38:20.258Z,100889.84
2023-03-19T10:40:51.861Z,100893.22
2023-03-19T10:43:23.388Z,100883.97
2023-03-19T10:45:54.931Z,100880.06
2023-03-19T10:48:28.340Z,100880.00
2023-03-19T10:50:59.960Z,100874.63
2023-03-19T10:53:32.239Z,100877.06
2023-03-19T10:56:03.923Z,100881.06
2023-03-19T10:58:35.840Z,100874.88
2023-03-19T11:01:07.646Z,100882.84
2023-03-19T11:03:39.613Z,100887.81
2023-03-19T11:06:11.180Z,100893.44
2023-03-19T11:08:43.030Z,100894.97
2023-03-19T11:11:14.527Z,100895.06
2023-03-19T11:13:46.350Z,100891.56
2023-03-19T11:16:17.841Z,100884.75
2023-03-19T11:18:49.810Z,100887.38
2023-03-19T11:21:21.318Z,100893.13
2023-03-19T11:23:52.888Z,100881.44
2023-03-19T11:26:28.449Z,100890.81
2023-03-19T11:28:59.972Z,100886.38
2023-03-19T11:31:33.920Z,100881.69
2023-03-19T11:34:05.710Z,100883.50
2023-03-19T11:36:38.117Z,100879.63
2023-03-19T11:39:09.920Z,100877.00
2023-03-19T11:41:41.586Z,100876.56
2023-03-19T11:44:13.299Z,100873.94
2023-03-19T11:46:45.082Z,100871.94
2023-03-19T11:49:16.972Z,100871.75
2023-03-19T11:51:48.477Z,100868.31
2023-03-19T11:54:20.011Z,100866.00
2023-03-19T11:56:51.585Z,100870.06
2023-03-19T11:59:24.273Z,100868.13
2023-03-19T12:01:55.778Z,100865.44
2023-03-19T12:04:27.793Z,100859.66
2023-03-19T12:07:00.996Z,100866.03
2023-03-19T12:09:32.863Z,100865.75
2023-03-19T12:12:04.399Z,100868.94
2023-03-19T12:14:36.245Z,100859.22
2023-03-19T12:17:07.734Z,100864.53
2023-03-19T12:19:39.906Z,100863.78
2023-03-19T12:22:11.625Z,100860.22
2023-03-19T12:24:43.502Z,100858.00
2023-03-19T12:27:15.972Z,100859.50
2023-03-19T12:29:48.503Z,100851.50
2023-03-19T12:32:20.090Z,100848.75
2023-03-19T12:34:51.973Z,100851.75
2023-03-19T12:37:23.480Z,100850.88
2023-03-19T12:39:55.811Z,100860.97
2023-03-19T12:42:27.640Z,100850.50
2023-03-19T12:44:59.209Z,100851.31
2023-03-19T12:47:31.343Z,100852.84
2023-03-19T12:50:03.322Z,100837.63
2023-03-19T12:52:34.855Z,100842.06
2023-03-19T12:55:06.745Z,100838.91
2023-03-19T12:57:38.452Z,100844.56
2023-03-19T13:00:09.957Z,100851.84
2023-03-19T13:02:41.553Z,100845.38
2023-03-19T13:05:13.354Z,100842.38
2023-03-19T13:07:44.866Z,100850.22
2023-03-19T13:10:16.759Z,100846.78
2023-03-19T13:12:48.291Z,100849.69
2023-03-19T13:15:19.906Z,100847.97
2023-03-19T13:17:51.444Z,100838.72
2023-03-19T13:20:23.005Z,100842.06
2023-03-19T13:22:54.568Z,100841.53
2023-03-19T13:25:26.286Z,100846.19
2023-03-19T13:27:57.823Z,100837.22
2023-03-19T13:30:29.413Z,100842.13
2023-03-19T13:33:01.123Z,100836.69
2023-03-19T13:35:32.762Z,100831.28
2023-03-19T13:38:04.456Z,100835.34
2023-03-19T13:40:36.009Z,100831.03
2023-03-19T13:43:15.628Z,100824.81
2023-03-19T13:45:53.566Z,100824.84
2023-03-19T13:48:25.899Z,100823.25
2023-03-19T13:50:57.397Z,100818.91
2023-03-19T13:53:29.231Z,100825.41
2023-03-19T13:56:00.815Z,100737.13
2023-03-19T13:58:52.525Z,100824.31
2023-03-19T14:01:24.054Z,100829.19
2023-03-19T14:03:56.263Z,100831.28
2023-03-19T14:06:27.898Z,100815.00
2023-03-19T14:08:59.457Z,100688.50
2023-03-19T14:11:31.161Z,100820.94
2023-03-19T14:14:03.254Z,100807.00
2023-03-19T14:16:34.798Z,100805.81
2023-03-19T14:19:06.788Z,100808.59
2023-03-19T14:21:38.302Z,100805.66
2023-03-19T14:24:45.483Z,100799.25
2023-03-19T14:27:02.035Z,100809.75
2023-03-19T14:29:33.790Z,100807.88
2023-03-19T14:32:05.558Z,100808.13
2023-03-19T14:34:37.653Z,100805.69
2023-03-19T14:37:09.160Z,100803.00
2023-03-19T14:39:41.086Z,100802.19
2023-03-19T14:42:12.636Z,100801.69
2023-03-19T14:44:44.174Z,100808.41
2023-03-19T14:47:16.990Z,100797.59
2023-03-19T14:49:49.301Z,100790.28
2023-03-19T14:52:21.389Z,100791.34
2023-03-19T14:54:52.901Z,100798.09
2023-03-19T14:57:24.428Z,100797.75
2023-03-19T14:59:56.285Z,100798.47
2023-03-19T15:02:28.022Z,100799.34
2023-03-19T15:05:00.696Z,100797.97
2023-03-19T15:07:32.379Z,100795.94
2023-03-19T15:10:06.406Z,100794.69
2023-03-19T15:12:38.674Z,100798.19
2023-03-19T15:15:10.789Z,100801.41
2023-03-19T15:17:45.275Z,100798.13
2023-03-19T15:20:18.733Z,100803.34
2023-03-19T15:22:50.232Z,100800.06
2023-03-19T15:25:22.121Z,100798.34
2023-03-19T15:27:53.646Z,100798.69
2023-03-19T15:30:28.842Z,100794.56
2023-03-19T15:33:13.956Z,100794.00
2023-03-19T15:35:49.625Z,100791.88
2023-03-19T15:38:21.183Z,100796.75
2023-03-19T15:40:53.240Z,100799.78
2023-03-19T15:43:24.862Z,100795.69
2023-03-19T15:45:56.472Z,100792.38
2023-03-19T15:48:28.026Z,100804.78
2023-03-19T15:50:59.617Z,100811.44
2023-03-19T15:53:31.459Z,100804.16
2023-03-19T15:56:03.025Z,100807.72
2023-03-19T15:58:34.575Z,100811.75
2023-03-19T16:01:06.525Z,100799.31
2023-03-19T16:03:38.112Z,100812.50
2023-03-19T16:06:09.639Z,100804.16
2023-03-19T16:08:41.309Z,100803.75
2023-03-19T16:11:12.849Z,100812.59
2023-03-19T16:13:44.751Z,100809.63
2023-03-19T16:16:16.957Z,100813.91
2023-03-19T16:18:51.218Z,100816.00
2023-03-19T16:21:23.155Z,100819.00
2023-03-19T16:23:54.682Z,100816.09
2023-03-19T16:26:26.308Z,100821.34
2023-03-19T16:28:57.879Z,100825.03
2023-03-19T16:31:31.838Z,100818.91
2023-03-19T16:34:03.533Z,100825.00
2023-03-19T16:36:35.047Z,100824.50
2023-03-19T16:39:06.592Z,100832.44
2023-03-19T16:41:38.118Z,100830.81
2023-03-19T16:44:09.630Z,100830.75
2023-03-19T16:46:41.624Z,100834.16
2023-03-19T16:49:13.504Z,100833.03
2023-03-19T16:51:46.115Z,100828.09
2023-03-19T16:54:17.709Z,100831.72
2023-03-19T16:56:49.304Z,100832.78
2023-03-19T16:59:21.014Z,100830.66
2023-03-19T17:01:52.568Z,100825.16
2023-03-19T17:04:24.204Z,100825.00
2023-03-19T17:06:56.033Z,100833.25
2023-03-19T17:09:27.932Z,100834.31
2023-03-19T17:11:59.441Z,100831.88
2023-03-19T17:14:31.517Z,100830.94
2023-03-19T17:17:03.068Z,100836.31
2023-03-19T17:19:34.765Z,100838.91
2023-03-19T17:22:07.248Z,100839.25
2023-03-19T17:24:39.200Z,100840.00
2023-03-19T17:27:11.678Z,100849.50
2023-03-19T17:29:43.217Z,100853.69
2023-03-19T17:32:14.745Z,100851.63
2023-03-19T17:34:46.588Z,100864.84
2023-03-19T17:37:18.094Z,100857.28
2023-03-19T17:39:50.100Z,100863.63
2023-03-19T17:42:21.673Z,100862.47
2023-03-19T17:44:53.618Z,100858.97
2023-03-19T17:47:25.249Z,100862.91
2023-03-19T17:49:56.872Z,100860.97
2023-03-19T17:52:30.369Z,100863.31
2023-03-19T17:55:02.538Z,100866.03
2023-03-19T17:57:34.077Z,100872.94
2023-03-19T18:00:06.710Z,100875.28
2023-03-19T18:02:38.245Z,100874.13
2023-03-19T18:05:10.094Z,100878.91
2023-03-19T18:07:41.616Z,100872.13
2023-03-19T18:10:13.147Z,100874.47
2023-03-19T18:12:44.658Z,100876.09
2023-03-19T18:15:16.453Z,100886.13
2023-03-19T18:17:47.980Z,100881.81
2023-03-19T18:20:19.865Z,100889.38
2023-03-19T18:22:51.402Z,100883.34
2023-03-19T18:25:23.366Z,100893.00
2023-03-19T18:27:54.910Z,100885.56
2023-03-19T18:30:26.726Z,100896.75
2023-03-19T18:32:58.353Z,100890.59
2023-03-19T18:35:29.969Z,100891.63
2023-03-19T18:38:01.533Z,100889.09
2023-03-19T18:40:33.957Z,100898.50
2023-03-19T18:43:05.656Z,100891.53
2023-03-19T18:45:37.528Z,100895.50
2023-03-19T18:48:09.082Z,100894.75
2023-03-19T18:50:40.968Z,100903.63
2023-03-19T18:53:12.468Z,100898.72
2023-03-19T18:55:44.379Z,100901.97
2023-03-19T18:58:16.436Z,100899.53
2023-03-19T19:00:48.333Z,100896.88
2023-03-19T19:03:19.906Z,100904.44
2023-03-19T19:05:54.014Z,100902.81
2023-03-19T19:08:26.719Z,100904.66
2023-03-19T19:10:58.229Z,100904.44
2023-03-19T19:13:29.743Z,100900.38
2023-03-19T19:16:01.681Z,100912.31
2023-03-19T19:18:33.310Z,100915.69
2023-03-19T19:21:05.282Z,100916.38
2023-03-19T19:23:36.795Z,100923.84
2023-03-19T19:26:08.692Z,100921.41
2023-03-19T19:28:41.549Z,100926.81
2023-03-19T19:31:13.678Z,100925.66
2023-03-19T19:33:45.207Z,100925.44
2023-03-19T19:36:17.022Z,100925.75
2023-03-19T19:38:48.780Z,100930.31
2023-03-19T19:41:21.236Z,100931.56
2023-03-19T19:43:55.909Z,100928.31
2023-03-19T19:46:28.057Z,100924.72
2023-03-19T19:48:59.669Z,100931.22
2023-03-19T19:51:31.586Z,100931.56
2023-03-19T19:54:03.810Z,100938.19
2023-03-19T19:56:35.786Z,100943.69
2023-03-19T19:59:07.365Z,100945.88
2023-03-19T20:01:39.329Z,100949.47
2023-03-19T20:04:10.850Z,100945.84
2023-03-19T20:06:42.769Z,100952.25
2023-03-19T20:09:14.458Z,100949.94
2023-03-19T20:11:46.421Z,100954.28
2023-03-19T20:14:18.120Z,100952.53
2023-03-19T20:16:49.642Z,100951.94
2023-03-19T20:19:21.254Z,100954.50
2023-03-19T20:21:53.858Z,100954.81
2023-03-19T20:24:25.862Z,100952.22
2023-03-19T20:27:00.792Z,100953.72
2023-03-19T20:29:32.480Z,100953.56
2023-03-19T20:32:04.059Z,100962.84
2023-03-19T20:34:39.437Z,100955.03
2023-03-19T20:37:11.722Z,100960.84
2023-03-19T20:39:44.374Z,100951.41
2023-03-19T20:42:16.459Z,100957.44
2023-03-19T20:44:48.575Z,100955.56
2023-03-19T20:47:21.543Z,100954.53
2023-03-19T20:49:53.540Z,100953.72
2023-03-19T20:52:26.325Z,100952.91
2023-03-19T20:54:58.749Z,100946.06
2023-03-19T20:57:30.756Z,100952.59
2023-03-19T21:00:02.391Z,100954.91
2023-03-19T21:02:34.336Z,100956.09
2023-03-19T21:05:07.735Z,100957.34
2023-03-19T21:07:39.656Z,100959.44
2023-03-19T21:10:11.427Z,100962.34
2023-03-19T21:12:42.965Z,100961.38
2023-03-19T21:15:14.541Z,100959.00
2023-03-19T21:17:46.564Z,100964.81
2023-03-19T21:20:18.132Z,100961.09
2023-03-19T21:22:50.092Z,100965.63
2023-03-19T21:25:21.885Z,100956.09
2023-03-19T21:27:53.774Z,100956.78
2023-03-19T21:30:25.447Z,100964.34
2023-03-19T21:32:57.456Z,100963.16
2023-03-19T21:35:29.677Z,100954.94
2023-03-19T21:38:01.184Z,100961.09
2023-03-19T21:40:33.609Z,100958.19
2023-03-19T21:43:05.655Z,100951.66
2023-03-19T21:45:37.824Z,100959.91
2023-03-19T21:48:09.551Z,100954.56
2023-03-19T21:50:41.544Z,100956.78
2023-03-19T21:53:13.064Z,100952.47
2023-03-19T21:55:44.652Z,100947.59
2023-03-19T21:58:16.499Z,100949.22
2023-03-19T22:00:48.129Z,100951.13
2023-03-19T22:03:19.712Z,100949.34
2023-03-19T22:05:51.567Z,100941.69
2023-03-19T22:08:23.632Z,100946.88
2023-03-19T22:10:55.486Z,100950.78
2023-03-19T22:13:27.704Z,100937.88
2023-03-19T22:16:00.391Z,100947.38
2023-03-19T22:18:32.054Z,100939.50
2023-03-19T22:21:03.980Z,100943.06
2023-03-19T22:23:35.948Z,100945.97
2023-03-19T22:26:07.885Z,100941.59
2023-03-19T22:28:39.406Z,100942.03
2023-03-19T22:31:11.420Z,100941.00
2023-03-19T22:33:43.032Z,100939.59
2023-03-19T22:36:15.262Z,100937.97
2023-03-19T22:38:48.667Z,100945.31
2023-03-19T22:41:20.167Z,100935.44
2023-03-19T22:43:51.736Z,100945.91
2023-03-19T22:46:24.911Z,100945.25
2023-03-19T22:48:56.708Z,100938.81
2023-03-19T22:51:28.233Z,100938.34
2023-03-19T22:53:59.808Z,100942.69
2023-03-19T22:56:31.913Z,100941.44
2023-03-19T22:59:03.403Z,100941.03
2023-03-19T23:01:35.189Z,100938.97
2023-03-19T23:04:06.953Z,100933.22
2023-03-19T23:06:38.731Z,100934.56
2023-03-19T23:09:10.230Z,100929.22
2023-03-19T23:11:42.161Z,100927.66
2023-03-19T23:14:27.910Z,100748.53
2023-03-19T23:17:01.571Z,100921.94
2023-03-19T23:19:33.137Z,100925.19
2023-03-19T23:22:05.256Z,100931.19
2023-03-19T23:24:37.789Z,100927.34
2023-03-19T23:27:09.520Z,100928.38
2023-03-19T23:29:41.011Z,100934.31
2023-03-19T23:32:12.864Z,100933.13
2023-03-19T23:34:57.167Z,100928.38
2023-03-19T23:37:30.953Z,100931.28
2023-03-19T23:40:03.801Z,100930.25
2023-03-19T23:42:36.417Z,100934.16
2023-03-19T23:45:08.202Z,100934.44
2023-03-19T23:47:39.877Z,100936.06
2023-03-19T23:50:11.709Z,100937.09
2023-03-19T23:52:43.511Z,100937.38
2023-03-19T23:55:14.994Z,100936.47
2023-03-19T23:57:46.764Z,100940.19
